sensor_id;sensor_type;location;lat;lon;timestamp;P1;durP1;ratioP1;P2;durP2;ratioP2
80245;SDS011;69558;39.208;-77.226;2023-06-19T00:00:31;6.18;;;4.57;;
80245;SDS011;69558;39.208;-77.226;2023-06-19T00:02:58;5.70;;;3.67;;
80245;SDS011;69558;39.208;-77.226;2023-06-19T00:05:24;6.70;;;4.93;;
80245;SDS011;69558;39.208;-77.226;2023-06-19T00:07:51;6.63;;;4.57;;
80245;SDS011;69558;39.208;-77.226;2023-06-19T00:10:17;5.20;;;3.00;;
80245;SDS011;69558;39.208;-77.226;2023-06-19T00:12:44;6.50;;;4.18;;
80245;SDS011;69558;39.208;-77.226;2023-06-19T00:15:10;6.03;;;3.78;;
80245;SDS011;69558;39.208;-77.226;2023-06-19T00:17:37;5.55;;;3.33;;
80245;SDS011;69558;39.208;-77.226;2023-06-19T00:20:04;5.80;;;3.65;;
80245;SDS011;69558;39.208;-77.226;2023-06-19T00:22:34;6.13;;;3.75;;
80245;SDS011;69558;39.208;-77.226;2023-06-19T00:25:00;6.43;;;3.60;;
80245;SDS011;69558;39.208;-77.226;2023-06-19T00:27:26;7.97;;;3.90;;
80245;SDS011;69558;39.208;-77.226;2023-06-19T00:29:52;6.53;;;4.68;;
80245;SDS011;69558;39.208;-77.226;2023-06-19T00:32:19;6.25;;;4.45;;
80245;SDS011;69558;39.208;-77.226;2023-06-19T00:34:45;5.68;;;3.72;;
80245;SDS011;69558;39.208;-77.226;2023-06-19T00:37:11;5.85;;;3.83;;
80245;SDS011;69558;39.208;-77.226;2023-06-19T00:39:39;5.90;;;3.60;;
80245;SDS011;69558;39.208;-77.226;2023-06-19T00:42:06;6.10;;;4.50;;
80245;SDS011;69558;39.208;-77.226;2023-06-19T00:44:32;6.68;;;4.88;;
80245;SDS011;69558;39.208;-77.226;2023-06-19T00:47:00;5.68;;;4.22;;
80245;SDS011;69558;39.208;-77.226;2023-06-19T00:49:28;5.20;;;3.40;;
80245;SDS011;69558;39.208;-77.226;2023-06-19T00:51:56;6.70;;;5.03;;
80245;SDS011;69558;39.208;-77.226;2023-06-19T00:54:22;5.75;;;4.55;;
80245;SDS011;69558;39.208;-77.226;2023-06-19T00:56:48;8.05;;;4.85;;
80245;SDS011;69558;39.208;-77.226;2023-06-19T00:59:18;5.93;;;4.20;;
80245;SDS011;69558;39.208;-77.226;2023-06-19T01:01:45;7.05;;;5.00;;
80245;SDS011;69558;39.208;-77.226;2023-06-19T01:04:12;7.13;;;5.07;;
80245;SDS011;69558;39.208;-77.226;2023-06-19T01:06:52;6.35;;;4.68;;
80245;SDS011;69558;39.208;-77.226;2023-06-19T01:09:26;6.68;;;4.32;;
80245;SDS011;69558;39.208;-77.226;2023-06-19T01:12:01;6.28;;;3.97;;
80245;SDS011;69558;39.208;-77.226;2023-06-19T01:14:51;5.97;;;3.85;;
80245;SDS011;69558;39.208;-77.226;2023-06-19T01:17:22;7.30;;;4.50;;
80245;SDS011;69558;39.208;-77.226;2023-06-19T01:19:50;6.68;;;5.07;;
80245;SDS011;69558;39.208;-77.226;2023-06-19T01:22:28;6.13;;;3.80;;
80245;SDS011;69558;39.208;-77.226;2023-06-19T01:24:55;6.07;;;4.07;;
80245;SDS011;69558;39.208;-77.226;2023-06-19T01:27:21;6.90;;;5.25;;
80245;SDS011;69558;39.208;-77.226;2023-06-19T01:29:48;6.05;;;4.00;;
80245;SDS011;69558;39.208;-77.226;2023-06-19T01:32:17;7.80;;;5.05;;
80245;SDS011;69558;39.208;-77.226;2023-06-19T01:34:48;6.50;;;5.00;;
80245;SDS011;69558;39.208;-77.226;2023-06-19T01:37:16;6.25;;;3.90;;
80245;SDS011;69558;39.208;-77.226;2023-06-19T01:39:43;7.07;;;5.18;;
80245;SDS011;69558;39.208;-77.226;2023-06-19T01:42:12;7.10;;;4.97;;
80245;SDS011;69558;39.208;-77.226;2023-06-19T01:44:40;6.50;;;4.10;;
80245;SDS011;69558;39.208;-77.226;2023-06-19T01:47:08;6.82;;;4.07;;
80245;SDS011;69558;39.208;-77.226;2023-06-19T01:49:37;6.35;;;4.30;;
80245;SDS011;69558;39.208;-77.226;2023-06-19T01:52:03;7.40;;;5.50;;
80245;SDS011;69558;39.208;-77.226;2023-06-19T01:54:30;6.60;;;4.70;;
80245;SDS011;69558;39.208;-77.226;2023-06-19T01:56:57;6.63;;;5.25;;
80245;SDS011;69558;39.208;-77.226;2023-06-19T01:59:24;7.65;;;5.75;;
80245;SDS011;69558;39.208;-77.226;2023-06-19T02:01:51;7.43;;;5.30;;
80245;SDS011;69558;39.208;-77.226;2023-06-19T02:04:17;8.07;;;5.25;;
80245;SDS011;69558;39.208;-77.226;2023-06-19T02:06:43;7.47;;;5.57;;
80245;SDS011;69558;39.208;-77.226;2023-06-19T02:09:10;6.72;;;4.35;;
80245;SDS011;69558;39.208;-77.226;2023-06-19T02:11:36;6.95;;;4.63;;
80245;SDS011;69558;39.208;-77.226;2023-06-19T02:14:01;7.75;;;5.80;;
80245;SDS011;69558;39.208;-77.226;2023-06-19T02:16:27;6.60;;;4.00;;
80245;SDS011;69558;39.208;-77.226;2023-06-19T02:18:53;6.68;;;5.05;;
80245;SDS011;69558;39.208;-77.226;2023-06-19T02:21:20;6.63;;;4.28;;
80245;SDS011;69558;39.208;-77.226;2023-06-19T02:23:46;7.28;;;5.32;;
80245;SDS011;69558;39.208;-77.226;2023-06-19T02:26:12;7.03;;;4.40;;
80245;SDS011;69558;39.208;-77.226;2023-06-19T02:28:38;7.03;;;4.40;;
80245;SDS011;69558;39.208;-77.226;2023-06-19T02:31:05;8.32;;;5.32;;
80245;SDS011;69558;39.208;-77.226;2023-06-19T02:33:31;7.50;;;5.25;;
80245;SDS011;69558;39.208;-77.226;2023-06-19T02:35:57;7.50;;;5.50;;
80245;SDS011;69558;39.208;-77.226;2023-06-19T02:38:27;6.93;;;4.32;;
80245;SDS011;69558;39.208;-77.226;2023-06-19T02:40:55;5.97;;;3.97;;
80245;SDS011;69558;39.208;-77.226;2023-06-19T02:43:27;7.28;;;4.55;;
80245;SDS011;69558;39.208;-77.226;2023-06-19T02:45:53;6.28;;;4.00;;
80245;SDS011;69558;39.208;-77.226;2023-06-19T02:48:19;6.60;;;4.45;;
80245;SDS011;69558;39.208;-77.226;2023-06-19T02:50:44;6.97;;;5.43;;
80245;SDS011;69558;39.208;-77.226;2023-06-19T02:53:11;6.90;;;4.25;;
80245;SDS011;69558;39.208;-77.226;2023-06-19T02:55:37;7.28;;;5.75;;
80245;SDS011;69558;39.208;-77.226;2023-06-19T02:58:03;7.75;;;5.72;;
80245;SDS011;69558;39.208;-77.226;2023-06-19T03:00:29;7.88;;;4.80;;
80245;SDS011;69558;39.208;-77.226;2023-06-19T03:02:55;7.63;;;6.07;;
80245;SDS011;69558;39.208;-77.226;2023-06-19T03:05:21;6.63;;;4.68;;
80245;SDS011;69558;39.208;-77.226;2023-06-19T03:07:47;7.22;;;4.47;;
80245;SDS011;69558;39.208;-77.226;2023-06-19T03:10:13;8.07;;;6.30;;
80245;SDS011;69558;39.208;-77.226;2023-06-19T03:12:39;7.15;;;4.60;;
80245;SDS011;69558;39.208;-77.226;2023-06-19T03:15:05;7.82;;;5.30;;
80245;SDS011;69558;39.208;-77.226;2023-06-19T03:17:31;8.13;;;6.15;;
80245;SDS011;69558;39.208;-77.226;2023-06-19T03:19:57;7.72;;;5.88;;
80245;SDS011;69558;39.208;-77.226;2023-06-19T03:22:23;8.45;;;6.20;;
80245;SDS011;69558;39.208;-77.226;2023-06-19T03:24:49;7.18;;;4.80;;
80245;SDS011;69558;39.208;-77.226;2023-06-19T03:27:15;8.77;;;6.40;;
80245;SDS011;69558;39.208;-77.226;2023-06-19T03:29:41;8.43;;;6.00;;
80245;SDS011;69558;39.208;-77.226;2023-06-19T03:32:07;7.93;;;5.15;;
80245;SDS011;69558;39.208;-77.226;2023-06-19T03:34:33;7.07;;;4.75;;
80245;SDS011;69558;39.208;-77.226;2023-06-19T03:36:59;8.68;;;6.60;;
80245;SDS011;69558;39.208;-77.226;2023-06-19T03:39:25;7.65;;;6.07;;
80245;SDS011;69558;39.208;-77.226;2023-06-19T03:41:51;8.00;;;6.15;;
80245;SDS011;69558;39.208;-77.226;2023-06-19T03:44:17;7.90;;;5.97;;
80245;SDS011;69558;39.208;-77.226;2023-06-19T03:46:43;8.23;;;5.53;;
80245;SDS011;69558;39.208;-77.226;2023-06-19T03:49:09;8.55;;;5.57;;
80245;SDS011;69558;39.208;-77.226;2023-06-19T03:51:35;7.93;;;4.90;;
80245;SDS011;69558;39.208;-77.226;2023-06-19T03:54:01;7.97;;;6.25;;
80245;SDS011;69558;39.208;-77.226;2023-06-19T03:56:27;8.32;;;5.45;;
80245;SDS011;69558;39.208;-77.226;2023-06-19T03:58:53;9.30;;;5.88;;
80245;SDS011;69558;39.208;-77.226;2023-06-19T04:01:19;8.48;;;5.93;;
80245;SDS011;69558;39.208;-77.226;2023-06-19T04:03:45;7.63;;;5.90;;
80245;SDS011;69558;39.208;-77.226;2023-06-19T04:06:11;8.50;;;6.18;;
80245;SDS011;69558;39.208;-77.226;2023-06-19T04:08:37;7.30;;;5.10;;
80245;SDS011;69558;39.208;-77.226;2023-06-19T04:11:03;8.07;;;5.78;;
80245;SDS011;69558;39.208;-77.226;2023-06-19T04:13:29;8.35;;;6.75;;
80245;SDS011;69558;39.208;-77.226;2023-06-19T04:15:55;10.30;;;7.20;;
80245;SDS011;69558;39.208;-77.226;2023-06-19T04:18:21;7.82;;;5.60;;
80245;SDS011;69558;39.208;-77.226;2023-06-19T04:20:47;8.32;;;6.63;;
80245;SDS011;69558;39.208;-77.226;2023-06-19T04:23:13;8.32;;;6.28;;
80245;SDS011;69558;39.208;-77.226;2023-06-19T04:25:39;8.70;;;6.82;;
80245;SDS011;69558;39.208;-77.226;2023-06-19T04:28:05;9.02;;;6.13;;
80245;SDS011;69558;39.208;-77.226;2023-06-19T04:30:31;8.70;;;6.75;;
80245;SDS011;69558;39.208;-77.226;2023-06-19T04:32:58;8.52;;;6.13;;
80245;SDS011;69558;39.208;-77.226;2023-06-19T04:35:24;8.63;;;5.85;;
80245;SDS011;69558;39.208;-77.226;2023-06-19T04:37:51;8.00;;;5.70;;
80245;SDS011;69558;39.208;-77.226;2023-06-19T04:40:16;8.82;;;5.88;;
80245;SDS011;69558;39.208;-77.226;2023-06-19T04:42:43;8.55;;;5.88;;
80245;SDS011;69558;39.208;-77.226;2023-06-19T04:45:09;8.88;;;6.03;;
80245;SDS011;69558;39.208;-77.226;2023-06-19T04:47:35;8.65;;;5.85;;
80245;SDS011;69558;39.208;-77.226;2023-06-19T04:50:01;10.23;;;6.78;;
80245;SDS011;69558;39.208;-77.226;2023-06-19T04:52:27;8.75;;;6.85;;
80245;SDS011;69558;39.208;-77.226;2023-06-19T04:54:53;8.63;;;6.07;;
80245;SDS011;69558;39.208;-77.226;2023-06-19T04:57:19;8.93;;;7.10;;
80245;SDS011;69558;39.208;-77.226;2023-06-19T04:59:45;8.25;;;6.63;;
80245;SDS011;69558;39.208;-77.226;2023-06-19T05:02:11;8.38;;;6.50;;
80245;SDS011;69558;39.208;-77.226;2023-06-19T05:04:37;7.80;;;5.40;;
80245;SDS011;69558;39.208;-77.226;2023-06-19T05:07:03;9.05;;;6.95;;
80245;SDS011;69558;39.208;-77.226;2023-06-19T05:09:29;8.98;;;5.95;;
80245;SDS011;69558;39.208;-77.226;2023-06-19T05:11:56;8.95;;;5.57;;
80245;SDS011;69558;39.208;-77.226;2023-06-19T05:14:23;10.23;;;7.03;;
80245;SDS011;69558;39.208;-77.226;2023-06-19T05:16:48;8.93;;;6.68;;
80245;SDS011;69558;39.208;-77.226;2023-06-19T05:19:15;9.73;;;6.32;;
80245;SDS011;69558;39.208;-77.226;2023-06-19T05:21:40;8.73;;;6.55;;
80245;SDS011;69558;39.208;-77.226;2023-06-19T05:24:07;9.05;;;7.00;;
80245;SDS011;69558;39.208;-77.226;2023-06-19T05:26:32;8.18;;;6.32;;
80245;SDS011;69558;39.208;-77.226;2023-06-19T05:28:59;8.45;;;5.72;;
80245;SDS011;69558;39.208;-77.226;2023-06-19T05:31:24;9.27;;;7.30;;
80245;SDS011;69558;39.208;-77.226;2023-06-19T05:33:51;8.65;;;6.93;;
80245;SDS011;69558;39.208;-77.226;2023-06-19T05:36:16;8.93;;;7.35;;
80245;SDS011;69558;39.208;-77.226;2023-06-19T05:38:42;9.25;;;6.50;;
80245;SDS011;69558;39.208;-77.226;2023-06-19T05:41:08;8.52;;;5.82;;
80245;SDS011;69558;39.208;-77.226;2023-06-19T05:43:34;8.70;;;6.72;;
80245;SDS011;69558;39.208;-77.226;2023-06-19T05:46:00;9.07;;;6.50;;
80245;SDS011;69558;39.208;-77.226;2023-06-19T05:48:27;8.93;;;7.22;;
80245;SDS011;69558;39.208;-77.226;2023-06-19T05:50:53;8.90;;;6.97;;
80245;SDS011;69558;39.208;-77.226;2023-06-19T05:53:19;9.27;;;6.72;;
80245;SDS011;69558;39.208;-77.226;2023-06-19T05:55:45;8.70;;;5.85;;
80245;SDS011;69558;39.208;-77.226;2023-06-19T05:58:11;9.27;;;6.88;;
80245;SDS011;69558;39.208;-77.226;2023-06-19T06:00:37;8.65;;;5.88;;
80245;SDS011;69558;39.208;-77.226;2023-06-19T06:03:03;8.02;;;6.43;;
80245;SDS011;69558;39.208;-77.226;2023-06-19T06:05:29;8.35;;;6.45;;
80245;SDS011;69558;39.208;-77.226;2023-06-19T06:07:55;9.00;;;7.07;;
80245;SDS011;69558;39.208;-77.226;2023-06-19T06:10:22;8.23;;;6.03;;
80245;SDS011;69558;39.208;-77.226;2023-06-19T06:12:50;7.70;;;5.35;;
80245;SDS011;69558;39.208;-77.226;2023-06-19T06:15:16;8.82;;;6.40;;
80245;SDS011;69558;39.208;-77.226;2023-06-19T06:17:42;9.48;;;7.18;;
80245;SDS011;69558;39.208;-77.226;2023-06-19T06:20:09;9.27;;;7.07;;
80245;SDS011;69558;39.208;-77.226;2023-06-19T06:22:41;9.20;;;6.05;;
80245;SDS011;69558;39.208;-77.226;2023-06-19T06:25:08;10.07;;;7.25;;
80245;SDS011;69558;39.208;-77.226;2023-06-19T06:27:38;8.88;;;6.97;;
80245;SDS011;69558;39.208;-77.226;2023-06-19T06:30:04;8.52;;;6.15;;
80245;SDS011;69558;39.208;-77.226;2023-06-19T06:32:31;8.63;;;5.95;;
80245;SDS011;69558;39.208;-77.226;2023-06-19T06:34:57;8.15;;;6.53;;
80245;SDS011;69558;39.208;-77.226;2023-06-19T06:37:24;8.77;;;6.20;;
80245;SDS011;69558;39.208;-77.226;2023-06-19T06:39:50;8.70;;;5.90;;
80245;SDS011;69558;39.208;-77.226;2023-06-19T06:42:16;10.00;;;6.95;;
80245;SDS011;69558;39.208;-77.226;2023-06-19T06:44:43;9.30;;;6.97;;
80245;SDS011;69558;39.208;-77.226;2023-06-19T06:47:09;8.70;;;6.25;;
80245;SDS011;69558;39.208;-77.226;2023-06-19T06:49:35;9.40;;;6.93;;
80245;SDS011;69558;39.208;-77.226;2023-06-19T06:52:02;8.85;;;6.28;;
80245;SDS011;69558;39.208;-77.226;2023-06-19T06:56:55;9.18;;;6.60;;
80245;SDS011;69558;39.208;-77.226;2023-06-19T06:59:25;8.65;;;5.75;;
80245;SDS011;69558;39.208;-77.226;2023-06-19T07:01:52;7.97;;;5.25;;
80245;SDS011;69558;39.208;-77.226;2023-06-19T07:04:20;8.85;;;6.90;;
80245;SDS011;69558;39.208;-77.226;2023-06-19T07:06:46;8.65;;;6.60;;
80245;SDS011;69558;39.208;-77.226;2023-06-19T07:09:11;9.15;;;6.78;;
80245;SDS011;69558;39.208;-77.226;2023-06-19T07:11:38;9.57;;;7.07;;
80245;SDS011;69558;39.208;-77.226;2023-06-19T07:14:04;8.57;;;6.72;;
80245;SDS011;69558;39.208;-77.226;2023-06-19T07:16:30;9.02;;;7.15;;
80245;SDS011;69558;39.208;-77.226;2023-06-19T07:18:55;8.60;;;6.78;;
80245;SDS011;69558;39.208;-77.226;2023-06-19T07:21:21;8.77;;;6.05;;
80245;SDS011;69558;39.208;-77.226;2023-06-19T07:23:47;9.13;;;6.70;;
80245;SDS011;69558;39.208;-77.226;2023-06-19T07:26:14;8.63;;;6.90;;
80245;SDS011;69558;39.208;-77.226;2023-06-19T07:28:41;8.85;;;6.40;;
80245;SDS011;69558;39.208;-77.226;2023-06-19T07:31:07;9.57;;;7.38;;
80245;SDS011;69558;39.208;-77.226;2023-06-19T07:33:33;10.07;;;7.43;;
80245;SDS011;69558;39.208;-77.226;2023-06-19T07:36:00;8.57;;;7.07;;
80245;SDS011;69558;39.208;-77.226;2023-06-19T07:38:30;8.57;;;5.60;;
80245;SDS011;69558;39.208;-77.226;2023-06-19T07:40:56;10.00;;;7.45;;
80245;SDS011;69558;39.208;-77.226;2023-06-19T07:43:21;8.00;;;5.72;;
80245;SDS011;69558;39.208;-77.226;2023-06-19T07:45:48;9.07;;;6.10;;
80245;SDS011;69558;39.208;-77.226;2023-06-19T07:48:15;9.18;;;6.78;;
80245;SDS011;69558;39.208;-77.226;2023-06-19T07:50:42;8.77;;;6.55;;
80245;SDS011;69558;39.208;-77.226;2023-06-19T07:53:08;8.18;;;5.90;;
80245;SDS011;69558;39.208;-77.226;2023-06-19T07:55:34;8.30;;;6.18;;
80245;SDS011;69558;39.208;-77.226;2023-06-19T07:58:02;9.32;;;6.20;;
80245;SDS011;69558;39.208;-77.226;2023-06-19T08:00:28;8.55;;;6.68;;
80245;SDS011;69558;39.208;-77.226;2023-06-19T08:02:54;9.23;;;6.85;;
80245;SDS011;69558;39.208;-77.226;2023-06-19T08:05:21;8.30;;;6.25;;
80245;SDS011;69558;39.208;-77.226;2023-06-19T08:07:47;8.90;;;6.72;;
80245;SDS011;69558;39.208;-77.226;2023-06-19T08:10:14;8.48;;;6.53;;
80245;SDS011;69558;39.208;-77.226;2023-06-19T08:12:41;8.68;;;6.53;;
80245;SDS011;69558;39.208;-77.226;2023-06-19T08:15:10;9.13;;;6.93;;
80245;SDS011;69558;39.208;-77.226;2023-06-19T08:17:40;8.35;;;5.40;;
80245;SDS011;69558;39.208;-77.226;2023-06-19T08:20:11;7.75;;;5.60;;
80245;SDS011;69558;39.208;-77.226;2023-06-19T08:22:38;9.00;;;6.05;;
80245;SDS011;69558;39.208;-77.226;2023-06-19T08:25:04;9.02;;;6.68;;
80245;SDS011;69558;39.208;-77.226;2023-06-19T08:29:58;8.57;;;6.93;;
80245;SDS011;69558;39.208;-77.226;2023-06-19T08:32:24;8.23;;;5.70;;
80245;SDS011;69558;39.208;-77.226;2023-06-19T08:34:51;8.23;;;6.28;;
80245;SDS011;69558;39.208;-77.226;2023-06-19T08:37:18;8.07;;;5.95;;
80245;SDS011;69558;39.208;-77.226;2023-06-19T08:39:44;9.95;;;7.10;;
80245;SDS011;69558;39.208;-77.226;2023-06-19T08:42:10;8.38;;;5.88;;
80245;SDS011;69558;39.208;-77.226;2023-06-19T08:44:36;8.82;;;7.15;;
80245;SDS011;69558;39.208;-77.226;2023-06-19T08:47:03;8.35;;;6.18;;
80245;SDS011;69558;39.208;-77.226;2023-06-19T08:49:30;8.50;;;6.20;;
80245;SDS011;69558;39.208;-77.226;2023-06-19T08:52:00;9.45;;;7.30;;
80245;SDS011;69558;39.208;-77.226;2023-06-19T08:54:27;9.57;;;6.95;;
80245;SDS011;69558;39.208;-77.226;2023-06-19T08:56:53;9.05;;;6.93;;
80245;SDS011;69558;39.208;-77.226;2023-06-19T08:59:20;8.15;;;5.85;;
80245;SDS011;69558;39.208;-77.226;2023-06-19T09:01:50;9.32;;;7.50;;
80245;SDS011;69558;39.208;-77.226;2023-06-19T09:04:18;9.65;;;7.47;;
80245;SDS011;69558;39.208;-77.226;2023-06-19T09:09:13;9.23;;;6.80;;
80245;SDS011;69558;39.208;-77.226;2023-06-19T09:11:40;8.88;;;7.18;;
80245;SDS011;69558;39.208;-77.226;2023-06-19T09:14:11;9.23;;;7.28;;
80245;SDS011;69558;39.208;-77.226;2023-06-19T09:16:40;8.85;;;6.20;;
80245;SDS011;69558;39.208;-77.226;2023-06-19T09:19:08;8.85;;;7.20;;
80245;SDS011;69558;39.208;-77.226;2023-06-19T09:21:37;9.25;;;6.20;;
80245;SDS011;69558;39.208;-77.226;2023-06-19T09:24:07;8.95;;;7.10;;
80245;SDS011;69558;39.208;-77.226;2023-06-19T09:26:34;8.60;;;6.70;;
80245;SDS011;69558;39.208;-77.226;2023-06-19T09:29:09;8.30;;;6.47;;
80245;SDS011;69558;39.208;-77.226;2023-06-19T09:31:36;9.90;;;7.40;;
80245;SDS011;69558;39.208;-77.226;2023-06-19T09:34:03;8.93;;;6.93;;
80245;SDS011;69558;39.208;-77.226;2023-06-19T09:36:31;8.43;;;5.97;;
80245;SDS011;69558;39.208;-77.226;2023-06-19T09:38:58;8.40;;;6.25;;
80245;SDS011;69558;39.208;-77.226;2023-06-19T09:41:25;9.32;;;7.65;;
80245;SDS011;69558;39.208;-77.226;2023-06-19T09:43:53;8.15;;;5.15;;
80245;SDS011;69558;39.208;-77.226;2023-06-19T09:46:33;9.30;;;6.90;;
80245;SDS011;69558;39.208;-77.226;2023-06-19T09:49:02;9.57;;;7.60;;
80245;SDS011;69558;39.208;-77.226;2023-06-19T09:51:32;9.70;;;6.72;;
80245;SDS011;69558;39.208;-77.226;2023-06-19T09:54:03;9.07;;;7.20;;
80245;SDS011;69558;39.208;-77.226;2023-06-19T09:56:31;9.48;;;7.07;;
80245;SDS011;69558;39.208;-77.226;2023-06-19T09:58:58;8.80;;;6.30;;
80245;SDS011;69558;39.208;-77.226;2023-06-19T10:01:26;8.93;;;6.45;;
80245;SDS011;69558;39.208;-77.226;2023-06-19T10:04:07;9.02;;;7.13;;
80245;SDS011;69558;39.208;-77.226;2023-06-19T10:06:43;8.25;;;5.55;;
80245;SDS011;69558;39.208;-77.226;2023-06-19T10:09:10;8.85;;;5.68;;
80245;SDS011;69558;39.208;-77.226;2023-06-19T10:11:49;9.80;;;6.93;;
80245;SDS011;69558;39.208;-77.226;2023-06-19T10:16:46;8.02;;;5.55;;
80245;SDS011;69558;39.208;-77.226;2023-06-19T10:19:16;8.57;;;5.93;;
80245;SDS011;69558;39.208;-77.226;2023-06-19T10:21:47;8.52;;;6.82;;
80245;SDS011;69558;39.208;-77.226;2023-06-19T10:24:15;8.13;;;5.53;;
80245;SDS011;69558;39.208;-77.226;2023-06-19T10:26:55;9.00;;;6.43;;
80245;SDS011;69558;39.208;-77.226;2023-06-19T10:29:24;9.35;;;6.47;;
80245;SDS011;69558;39.208;-77.226;2023-06-19T10:31:51;8.25;;;5.80;;
80245;SDS011;69558;39.208;-77.226;2023-06-19T10:34:17;9.20;;;6.75;;
80245;SDS011;69558;39.208;-77.226;2023-06-19T10:36:43;8.70;;;6.95;;
80245;SDS011;69558;39.208;-77.226;2023-06-19T10:39:09;8.77;;;6.60;;
80245;SDS011;69558;39.208;-77.226;2023-06-19T10:41:39;9.13;;;7.18;;
80245;SDS011;69558;39.208;-77.226;2023-06-19T10:44:06;8.43;;;5.88;;
80245;SDS011;69558;39.208;-77.226;2023-06-19T10:46:38;8.90;;;7.28;;
80245;SDS011;69558;39.208;-77.226;2023-06-19T10:49:06;8.30;;;5.78;;
80245;SDS011;69558;39.208;-77.226;2023-06-19T10:51:38;9.07;;;7.00;;
80245;SDS011;69558;39.208;-77.226;2023-06-19T10:54:07;9.18;;;7.10;;
80245;SDS011;69558;39.208;-77.226;2023-06-19T10:56:33;8.65;;;7.18;;
80245;SDS011;69558;39.208;-77.226;2023-06-19T10:59:06;9.25;;;6.47;;
80245;SDS011;69558;39.208;-77.226;2023-06-19T11:01:43;9.07;;;7.13;;
80245;SDS011;69558;39.208;-77.226;2023-06-19T11:04:12;8.35;;;5.85;;
80245;SDS011;69558;39.208;-77.226;2023-06-19T11:06:41;9.82;;;7.30;;
80245;SDS011;69558;39.208;-77.226;2023-06-19T11:09:10;8.68;;;6.60;;
80245;SDS011;69558;39.208;-77.226;2023-06-19T11:14:06;9.77;;;6.97;;
80245;SDS011;69558;39.208;-77.226;2023-06-19T11:16:34;8.02;;;5.50;;
80245;SDS011;69558;39.208;-77.226;2023-06-19T11:19:00;9.38;;;7.43;;
80245;SDS011;69558;39.208;-77.226;2023-06-19T11:21:31;9.38;;;7.15;;
80245;SDS011;69558;39.208;-77.226;2023-06-19T11:24:02;9.35;;;7.13;;
80245;SDS011;69558;39.208;-77.226;2023-06-19T11:26:33;9.27;;;6.85;;
80245;SDS011;69558;39.208;-77.226;2023-06-19T11:29:24;8.07;;;5.57;;
80245;SDS011;69558;39.208;-77.226;2023-06-19T11:31:53;8.35;;;5.70;;
80245;SDS011;69558;39.208;-77.226;2023-06-19T11:34:33;8.30;;;6.63;;
80245;SDS011;69558;39.208;-77.226;2023-06-19T11:37:11;9.10;;;7.18;;
80245;SDS011;69558;39.208;-77.226;2023-06-19T11:39:38;8.75;;;7.10;;
80245;SDS011;69558;39.208;-77.226;2023-06-19T11:42:04;9.38;;;6.97;;
80245;SDS011;69558;39.208;-77.226;2023-06-19T11:44:31;9.75;;;6.00;;
80245;SDS011;69558;39.208;-77.226;2023-06-19T11:46:57;8.93;;;7.10;;
80245;SDS011;69558;39.208;-77.226;2023-06-19T11:49:24;8.20;;;5.90;;
80245;SDS011;69558;39.208;-77.226;2023-06-19T11:51:50;9.43;;;7.32;;
80245;SDS011;69558;39.208;-77.226;2023-06-19T11:54:16;8.63;;;5.90;;
80245;SDS011;69558;39.208;-77.226;2023-06-19T11:56:43;8.88;;;6.63;;
80245;SDS011;69558;39.208;-77.226;2023-06-19T11:59:10;8.45;;;5.93;;
80245;SDS011;69558;39.208;-77.226;2023-06-19T12:01:36;9.15;;;7.15;;
80245;SDS011;69558;39.208;-77.226;2023-06-19T12:04:05;8.35;;;6.43;;
80245;SDS011;69558;39.208;-77.226;2023-06-19T12:06:31;8.82;;;6.97;;
80245;SDS011;69558;39.208;-77.226;2023-06-19T12:08:58;9.30;;;7.18;;
80245;SDS011;69558;39.208;-77.226;2023-06-19T12:11:24;9.48;;;7.38;;
80245;SDS011;69558;39.208;-77.226;2023-06-19T12:13:50;8.35;;;6.13;;
80245;SDS011;69558;39.208;-77.226;2023-06-19T12:16:18;9.60;;;7.65;;
80245;SDS011;69558;39.208;-77.226;2023-06-19T12:18:46;9.95;;;7.88;;
80245;SDS011;69558;39.208;-77.226;2023-06-19T12:21:11;9.07;;;6.53;;
80245;SDS011;69558;39.208;-77.226;2023-06-19T12:23:37;9.38;;;6.53;;
80245;SDS011;69558;39.208;-77.226;2023-06-19T12:26:03;10.60;;;7.20;;
80245;SDS011;69558;39.208;-77.226;2023-06-19T12:28:30;8.45;;;6.60;;
80245;SDS011;69558;39.208;-77.226;2023-06-19T12:30:56;8.98;;;6.57;;
80245;SDS011;69558;39.208;-77.226;2023-06-19T12:33:23;9.45;;;6.68;;
80245;SDS011;69558;39.208;-77.226;2023-06-19T12:35:50;8.32;;;5.72;;
80245;SDS011;69558;39.208;-77.226;2023-06-19T12:38:16;8.85;;;7.13;;
80245;SDS011;69558;39.208;-77.226;2023-06-19T12:40:43;9.18;;;6.57;;
80245;SDS011;69558;39.208;-77.226;2023-06-19T12:45:36;15.93;;;9.30;;
80245;SDS011;69558;39.208;-77.226;2023-06-19T12:48:02;17.98;;;11.77;;
80245;SDS011;69558;39.208;-77.226;2023-06-19T12:50:28;22.98;;;11.73;;
80245;SDS011;69558;39.208;-77.226;2023-06-19T12:52:54;23.05;;;13.10;;
80245;SDS011;69558;39.208;-77.226;2023-06-19T12:55:20;22.20;;;12.30;;
80245;SDS011;69558;39.208;-77.226;2023-06-19T12:57:46;21.75;;;12.30;;
80245;SDS011;69558;39.208;-77.226;2023-06-19T13:00:12;25.92;;;13.45;;
80245;SDS011;69558;39.208;-77.226;2023-06-19T13:02:38;24.05;;;13.57;;
80245;SDS011;69558;39.208;-77.226;2023-06-19T13:05:05;26.60;;;14.68;;
80245;SDS011;69558;39.208;-77.226;2023-06-19T13:07:32;29.50;;;17.77;;
80245;SDS011;69558;39.208;-77.226;2023-06-19T13:09:58;31.05;;;16.55;;
80245;SDS011;69558;39.208;-77.226;2023-06-19T13:12:24;32.10;;;17.98;;
80245;SDS011;69558;39.208;-77.226;2023-06-19T13:14:50;29.17;;;16.80;;
80245;SDS011;69558;39.208;-77.226;2023-06-19T13:17:16;28.27;;;16.42;;
80245;SDS011;69558;39.208;-77.226;2023-06-19T13:19:42;25.98;;;16.10;;
80245;SDS011;69558;39.208;-77.226;2023-06-19T13:22:08;30.98;;;18.13;;
80245;SDS011;69558;39.208;-77.226;2023-06-19T13:24:34;27.35;;;16.00;;
80245;SDS011;69558;39.208;-77.226;2023-06-19T13:27:00;29.70;;;18.25;;
80245;SDS011;69558;39.208;-77.226;2023-06-19T13:29:26;26.23;;;17.95;;
80245;SDS011;69558;39.208;-77.226;2023-06-19T13:31:52;29.65;;;17.48;;
80245;SDS011;69558;39.208;-77.226;2023-06-19T13:34:18;28.38;;;19.10;;
80245;SDS011;69558;39.208;-77.226;2023-06-19T13:36:46;29.08;;;18.05;;
80245;SDS011;69558;39.208;-77.226;2023-06-19T13:39:12;27.15;;;16.58;;
80245;SDS011;69558;39.208;-77.226;2023-06-19T13:41:40;24.60;;;15.45;;
80245;SDS011;69558;39.208;-77.226;2023-06-19T13:44:06;24.17;;;15.88;;
80245;SDS011;69558;39.208;-77.226;2023-06-19T13:46:32;26.92;;;16.70;;
80245;SDS011;69558;39.208;-77.226;2023-06-19T13:48:59;25.20;;;17.33;;
80245;SDS011;69558;39.208;-77.226;2023-06-19T13:51:26;19.35;;;13.80;;
80245;SDS011;69558;39.208;-77.226;2023-06-19T13:53:52;23.35;;;14.23;;
80245;SDS011;69558;39.208;-77.226;2023-06-19T13:56:18;20.20;;;13.55;;
80245;SDS011;69558;39.208;-77.226;2023-06-19T13:58:46;20.38;;;14.95;;
80245;SDS011;69558;39.208;-77.226;2023-06-19T14:01:12;21.00;;;14.75;;
80245;SDS011;69558;39.208;-77.226;2023-06-19T14:03:38;21.50;;;14.77;;
80245;SDS011;69558;39.208;-77.226;2023-06-19T14:06:08;20.02;;;14.20;;
80245;SDS011;69558;39.208;-77.226;2023-06-19T14:08:34;19.13;;;12.77;;
80245;SDS011;69558;39.208;-77.226;2023-06-19T14:11:00;19.05;;;13.23;;
80245;SDS011;69558;39.208;-77.226;2023-06-19T14:13:27;17.48;;;12.18;;
80245;SDS011;69558;39.208;-77.226;2023-06-19T14:15:54;19.30;;;13.88;;
80245;SDS011;69558;39.208;-77.226;2023-06-19T14:18:20;21.77;;;13.65;;
80245;SDS011;69558;39.208;-77.226;2023-06-19T14:20:46;19.20;;;14.13;;
80245;SDS011;69558;39.208;-77.226;2023-06-19T14:23:12;17.20;;;12.10;;
80245;SDS011;69558;39.208;-77.226;2023-06-19T14:25:38;20.15;;;14.07;;
80245;SDS011;69558;39.208;-77.226;2023-06-19T14:28:03;18.90;;;13.60;;
80245;SDS011;69558;39.208;-77.226;2023-06-19T14:30:32;16.80;;;11.30;;
80245;SDS011;69558;39.208;-77.226;2023-06-19T14:32:59;17.00;;;11.77;;